This demonstration page uses our WeatherBlox Daily Observations layout. Learn more.

38.88101, -77.10428

Hourly Observations for October 5, 2016

Temp ( °F °C ) Dew Point ( °F °C ) Humidity (%) Winds ( mph kmh ) Pressure ( in mb ) Visibility ( mi km ) Precip ( " mm )
12:52 am 00:52 Clear 63 17 57 14 83 83 ENE 10 17 30.27 1025 10 16.09344 0 0
1:52 am 01:52 Clear 61 16.1 58 14.4 90 90 NNE 7 11 30.27 1025 10 16.09344 0 0
2:52 am 02:52 Clear 60 15.6 57 13.9 90 90 NNE 8 13 30.3 1026 10 16.09344 0 0
3:52 am 03:52 Clear 60 15.6 57 13.9 90 90 NNE 8 13 30.27 1025 10 16.09344 0 0
4:52 am 04:52 Mostly Clear 59 15 57 13.9 93 93 N 8 13 30.27 1025 10 16.09344 0 0
5:52 am 05:52 Mostly Clear 58 14.4 56 13.3 93 93 N 7 11 30.3 1026 10 16.09344 0 0
6:52 am 06:52 Mostly Clear 59 15 57 13.9 93 93 N 6 9 30.3 1026 10 16.09344 0 0
7:52 am 07:52 Mostly Sunny 60 15.6 56 13.3 86 86 NE 10 17 30.3 1026 10 16.09344 0 0
8:52 am 08:52 Partly Cloudy 62 16.7 56 13.3 80 80 NE 13 20 30.33 1027 10 16.09344 0 0
9:52 am 09:52 Partly Cloudy 64 17.8 55 12.8 73 73 ENE 15 24 30.33 1027 10 16.09344 0 0
10:52 am 10:52 Mostly Cloudy 64 17.8 55 12.8 73 73 NE 10 17 30.33 1027 10 16.09344 0 0
11:52 am 11:52 Partly Cloudy 69 20.6 56 13.3 63 63 NE 10 17 30.3 1026 10 16.09344 0 0
12:52 pm 12:52 Mostly Cloudy 69 20.6 55 12.8 61 61 NE 7 11 30.3 1026 10 16.09344 0 0
1:52 pm 13:52 Mostly Cloudy 68 20 54 12.2 61 61 ENE 8 13 30.27 1025 10 16.09344 0 0
2:52 pm 14:52 Mostly Cloudy 72 22.2 56 13.3 57 57 NE 9 15 30.27 1025 10 16.09344 0 0
3:52 pm 15:52 Mostly Cloudy 70 21.1 54 12.2 57 57 E 5 7 30.24 1024 10 16.09344 0 0
4:52 pm 16:52 Mostly Cloudy 69 20.6 56 13.3 63 63 E 8 13 30.27 1025 10 16.09344 0 0
5:52 pm 17:52 Mostly Cloudy 68 20 54 12.2 61 61 ESE 7 11 30.27 1025 10 16.09344 0 0
6:52 pm 18:52 Partly Cloudy 66 18.9 55 12.8 68 68 ENE 7 11 30.24 1024 10 16.09344 0 0
7:52 pm 19:52 Partly Cloudy 66 18.9 56 13.3 70 70 ENE 8 13 30.27 1025 10 16.09344 0 0
8:52 pm 20:52 Partly Cloudy 66 18.9 55 12.8 68 68 E 5 7 30.27 1025 10 16.09344 0 0
9:52 pm 21:52 Mostly Cloudy 66 18.9 56 13.3 70 70 ENE 8 13 30.27 1025 10 16.09344 0 0
10:52 pm 22:52 Mostly Cloudy 64 17.8 58 14.4 81 81 ESE 10 17 30.27 1025 10 16.09344 0 0
11:29 pm 23:29 Mostly Clear 63 17.2 58 14.4 84 84 ESE 9 15 30.27 1025 10 16.09344 0 0
11:52 pm 23:52 Mostly Clear 63 17.2 57 13.9 81 81 ENE 5 7 30.27 1025 10 16.09344 0 0

Powered by AerisWeather